• Join FlightAware (Why Join?)
  • Login
  • US Flag 
12:52AM EDT


 

Airport Tracker/Info


-or-


 

Live Flight TrackerFlight Track Log ✈ EJA929 ✈ 07-Aug-2013 ✈ KCMH - KSUS

Flight Track Log - Related Links

Times and Time Zones

All times are in EDT time to prevent confusion due to time zone crossing. See the EJA929 flight status page for this flight to view local times or setup timezone preferences in your user account.

Time Position Orientation Groundspeed Altitude Reporting Facility
EDT Latitude Longitude Course Direction KTS MPH feet Rate Location/Type
10:28AM 39.9944 -82.9033 277° West 176 203 1,100  Level Indianapolis Center
10:30AM 40.0089 -83.0531 277° West 319 367 7,300 3,120 Climbing Indianapolis Center
10:31AM 40.0147 -83.1503 275° West 271 312 10,400 3,000 Climbing Indianapolis Center
10:32AM 40.0244 -83.2739 276° West 326 375 13,500 3,120 Climbing Indianapolis Center
10:33AM 40.0139 -83.4247 265° West 357 411 16,900 2,760 Climbing Indianapolis Center
10:34AM 40.0014 -83.5583 263° West 366 421 19,300 1,860 Climbing Indianapolis Center
10:35AM 39.9892 -83.6967 263° West 377 434 20,800 1,500 Climbing Indianapolis Center
10:36AM 39.9733 -83.8439 262° West 391 450 22,500 1,020 Climbing Indianapolis Center
10:37AM 39.9581 -83.9964 263° West 407 468 23,000 540 Climbing Indianapolis Center
10:38AM 39.9419 -84.1525 262° West 434 499 23,700 1,200 Climbing Indianapolis Center
10:39AM 39.9261 -84.3039 262° West 425 489 25,600 1,860 Climbing Indianapolis Center
10:40AM 39.9131 -84.4461 263° West 403 464 27,600 1,860 Climbing Indianapolis Center
10:41AM 39.8981 -84.5819 262° West 386 444 29,500 1,740 Climbing Indianapolis Center
10:42AM 39.8839 -84.7186 262° West 383 441 31,200 2,040 Climbing Indianapolis Center
10:43AM 39.8697 -84.8483 262° West 368 423 33,700 1,980 Climbing Indianapolis Center
10:44AM 39.8528 -85.0022 262° West 360 414 35,400 1,080 Climbing Indianapolis Center
10:45AM 39.8394 -85.1364 263° West 370 426 36,000 240 Climbing Indianapolis Center
10:46AM 39.8261 -85.2831 263° West 402 463 36,000  Level Indianapolis Center
10:47AM 39.8072 -85.4383 261° West 424 488 36,000  Level Indianapolis Center
10:48AM 39.7878 -85.5997 261° West 442 509 36,000  Level Indianapolis Center
10:49AM 39.7703 -85.7583 262° West 447 514 36,000  Level Indianapolis Center
10:50AM 39.7483 -85.9500 262° West 448 516 36,000  Level Indianapolis Center
10:51AM 39.7297 -86.1083 261° West 445 512 36,000  Level Indianapolis Center
10:52AM 39.7094 -86.2742 261° West 449 517 36,000  Level Indianapolis Center
10:53AM 39.6894 -86.4461 261° West 453 521 36,000  Level Indianapolis Center
10:54AM 39.6703 -86.6067 261° West 452 520 36,000  Level Indianapolis Center
10:55AM 39.6511 -86.7658 261° West 448 516 36,000  Level Indianapolis Center
10:56AM 39.6311 -86.9264 261° West 450 518 36,000  Level Indianapolis Center
10:57AM 39.6111 -87.0833 261° West 444 511 36,000 -60 Level Indianapolis Center
10:59AM 39.5914 -87.2369 261° West 436 502 35,900 -1,020 Descending Indianapolis Center
11:00AM 39.5708 -87.3942 260° West 442 509 33,900 -2,040 Descending Indianapolis Center
11:01AM 39.5350 -87.6703 261° West 438 504 30,400 -1,920 Descending Kansas City Center
11:02AM 39.5139 -87.8333 261° West 449 517 28,800 -1,200 Descending Kansas City Center
11:03AM 39.4903 -88.0072 260° West 476 548 28,000 -420 Descending Kansas City Center
11:04AM 39.4672 -88.1792 260° West 483 556 28,000  Level Kansas City Center
11:05AM 39.4394 -88.3800 260° West 478 550 28,000 -300 Level Kansas City Center
11:06AM 39.4161 -88.5472 260° West 474 545 27,400 -1,440 Descending Kansas City Center
11:07AM 39.3903 -88.7228 259° West 477 549 25,100 -1,860 Descending Kansas City Center
11:08AM 39.3675 -88.8864 260° West 468 539 23,600 -1,560 Descending Kansas City Center
11:09AM 39.3461 -89.0481 260° West 462 532 21,900 -1,980 Descending Kansas City Center
11:11AM 39.3231 -89.2072 259° West 456 525 19,600 -2,220 Descending Kansas City Center
11:12AM 39.3014 -89.3581 260° West 439 505 17,400 -2,220 Descending Kansas City Center
11:13AM 39.2789 -89.5058 259° West 426 490 15,100 -2,220 Descending Kansas City Center
11:14AM 39.2572 -89.6511 259° West 417 480 12,900 -1,500 Descending Kansas City Center
11:15AM 39.2033 -89.8094 246° West 407 468 12,100 -1,020 Descending Kansas City Center
11:16AM 39.1425 -89.9317 237° Southwest 401 461 10,900 -1,020 Descending Kansas City Center
11:17AM 39.0903 -90.0347 237° Southwest 358 412 10,100 -1,020 Descending Kansas City Center
11:18AM 39.0367 -90.1078 227° Southwest 294 338 8,900 -1,380 Descending Kansas City Center
11:19AM 38.9731 -90.1619 214° Southwest 278 320 7,300 -1,320 Descending Kansas City Center
11:20AM 38.9144 -90.2164 216° Southwest 266 306 6,300 -1,380 Descending Kansas City Center
11:21AM 38.8433 -90.2800 215° Southwest 261 300 4,500 -1,140 Descending Kansas City Center
11:22AM 38.7833 -90.3336 215° Southwest 262 302 4,000 -300 Descending Kansas City Center
11:23AM 38.7261 -90.3847 215° Southwest 259 298 4,000 -120 Level Kansas City Center
11:24AM 38.6922 -90.4442 234° Southwest 231 266 3,800 -840 Descending Kansas City Center
11:25AM 38.6803 -90.5219 259° West 192 221 2,300 -1,200 Descending Kansas City Center
11:26AM 38.6706 -90.5817 258° West 180 207 1,400 -780 Descending Kansas City Center
11:27AM 38.6628 -90.6303 258° West 161 185 700 -480 Descending Kansas City Center
11:28AM 38.6553 -90.6769 258° West 156 180 500 -240 Descending Kansas City Center
11:30AM 38.6500 -90.6500 104° East  Level FlightAware Approximate